createdAt,value
2023-04-07T00:00:39.472Z,94427.34
2023-04-07T00:01:36.302Z,94420.09
2023-04-07T00:02:33.276Z,94425.34
2023-04-07T00:03:30.853Z,94424.13
2023-04-07T00:04:28.219Z,94416.09
2023-04-07T00:05:25.478Z,94402.66
2023-04-07T00:06:22.870Z,94424.47
2023-04-07T00:07:19.742Z,94409.63
2023-04-07T00:08:16.700Z,94425.25
2023-04-07T00:09:13.474Z,94424.81
2023-04-07T00:10:10.587Z,94391.44
2023-04-07T00:11:08.928Z,94423.41
2023-04-07T00:12:05.784Z,94390.59
2023-04-07T00:13:02.883Z,94380.25
2023-04-07T00:13:59.773Z,94366.19
2023-04-07T00:14:56.491Z,94390.97
2023-04-07T00:15:53.313Z,94415.19
2023-04-07T00:16:50.146Z,94417.47
2023-04-07T00:17:46.918Z,94400.06
2023-04-07T00:18:43.805Z,94359.13
2023-04-07T00:19:40.687Z,94407.03
2023-04-07T00:20:37.428Z,94415.97
2023-04-07T00:21:34.168Z,94415.69
2023-04-07T00:22:30.877Z,94364.06
2023-04-07T00:23:27.893Z,94422.59
2023-04-07T00:24:33.894Z,94417.28
2023-04-07T00:25:31.496Z,94416.28
2023-04-07T00:26:31.545Z,94396.84
2023-04-07T00:27:28.316Z,94415.66
2023-04-07T00:28:25.309Z,94418.50
2023-04-07T00:29:22.058Z,94412.66
2023-04-07T00:30:18.944Z,94418.22
2023-04-07T00:31:15.811Z,94415.25
2023-04-07T00:32:12.742Z,94412.91
2023-04-07T00:33:10.093Z,94416.19
2023-04-07T00:34:06.954Z,94412.25
2023-04-07T00:35:03.814Z,94395.31
2023-04-07T00:36:00.699Z,94411.56
2023-04-07T00:36:57.539Z,94391.16
2023-04-07T00:37:54.442Z,94415.91
2023-04-07T00:38:51.176Z,94386.84
2023-04-07T00:39:47.895Z,94391.72
2023-04-07T00:40:44.642Z,94366.59
2023-04-07T00:41:41.809Z,94288.09
2023-04-07T00:42:38.567Z,94414.16
2023-04-07T00:43:37.214Z,94413.84
2023-04-07T00:44:34.669Z,94408.53
2023-04-07T00:45:31.654Z,94387.56
2023-04-07T00:46:28.962Z,94400.66
2023-04-07T00:47:25.960Z,94401.09
2023-04-07T00:48:23.283Z,94365.75
2023-04-07T00:49:20.182Z,94418.22
2023-04-07T00:50:18.419Z,94402.13
2023-04-07T00:51:16.092Z,94353.00
2023-04-07T00:52:15.009Z,94412.59
2023-04-07T00:53:12.504Z,94415.94
2023-04-07T00:54:11.238Z,94409.81
2023-04-07T00:55:08.474Z,94420.94
2023-04-07T00:56:05.749Z,94411.38
2023-04-07T00:57:02.788Z,94415.78
2023-04-07T00:57:59.561Z,94412.25
2023-04-07T00:58:56.446Z,94395.31
2023-04-07T00:59:53.826Z,94407.13
2023-04-07T01:01:12.020Z,94403.25
2023-04-07T01:02:19.515Z,94333.47
2023-04-07T01:03:26.536Z,94339.09
2023-04-07T01:04:26.312Z,94403.09
2023-04-07T01:05:54.676Z,94405.63
2023-04-07T01:06:59.214Z,94381.41
2023-04-07T01:08:19.906Z,94404.19
2023-04-07T01:09:25.552Z,94366.16
2023-04-07T01:10:36.780Z,94406.69
2023-04-07T01:11:52.947Z,94409.03
2023-04-07T01:12:55.179Z,94402.50
2023-04-07T01:13:53.830Z,94393.50
2023-04-07T01:14:56.075Z,94404.28
2023-04-07T01:15:58.527Z,94345.97
2023-04-07T01:17:00.524Z,94392.34
2023-04-07T01:18:08.803Z,94390.31
2023-04-07T01:19:32.951Z,94401.41
2023-04-07T01:20:33.800Z,94397.06
2023-04-07T01:21:35.153Z,94394.34
2023-04-07T01:22:42.100Z,94403.00
2023-04-07T01:24:12.940Z,94403.00
2023-04-07T01:25:34.108Z,94403.59
2023-04-07T01:26:35.127Z,94399.22
2023-04-07T01:27:38.421Z,94400.78
2023-04-07T01:28:44.043Z,94387.69
2023-04-07T01:29:48.152Z,94360.13
2023-04-07T01:30:48.002Z,94371.66
2023-04-07T01:31:49.169Z,94389.19
2023-04-07T01:32:52.058Z,94337.50
2023-04-07T01:33:51.221Z,94263.88
2023-04-07T01:34:50.794Z,94388.78
2023-04-07T01:35:50.999Z,94384.81
2023-04-07T01:36:50.552Z,94370.34
2023-04-07T01:37:56.429Z,94344.53
2023-04-07T01:38:54.782Z,94397.59
2023-04-07T01:39:51.709Z,94393.41
2023-04-07T01:40:50.810Z,94394.41
2023-04-07T01:41:51.455Z,94397.28
2023-04-07T01:42:50.041Z,94342.44
2023-04-07T01:43:48.964Z,94387.78
2023-04-07T01:44:47.973Z,94392.47
2023-04-07T01:45:46.275Z,94389.28
2023-04-07T01:46:43.426Z,94378.63
2023-04-07T01:47:40.825Z,94361.78
2023-04-07T01:48:39.781Z,94383.75
2023-04-07T01:49:38.193Z,94383.53
2023-04-07T01:50:36.219Z,94368.25
2023-04-07T01:51:34.917Z,94321.63
2023-04-07T01:52:33.647Z,94383.09
2023-04-07T01:53:30.819Z,94344.25
2023-04-07T01:54:29.111Z,94387.75
2023-04-07T01:55:26.359Z,94385.53
2023-04-07T01:56:23.401Z,94356.22
2023-04-07T01:57:20.372Z,94382.97
2023-04-07T01:58:17.086Z,94381.13
2023-04-07T01:59:13.853Z,94383.16
2023-04-07T02:00:11.148Z,94379.22
2023-04-07T02:01:07.969Z,94380.75
2023-04-07T02:02:04.932Z,94358.28
2023-04-07T02:03:46.130Z,94381.19
2023-04-07T02:04:56.374Z,94377.16
2023-04-07T02:05:57.650Z,94351.00
2023-04-07T02:07:05.842Z,94378.34
2023-04-07T02:08:08.180Z,94343.38
2023-04-07T02:09:09.894Z,94303.66
2023-04-07T02:10:12.164Z,94374.78
2023-04-07T02:11:13.018Z,94338.41
2023-04-07T02:12:14.272Z,94369.38
2023-04-07T02:13:18.919Z,94363.47
2023-04-07T02:14:17.817Z,94363.56
2023-04-07T02:15:16.749Z,94374.78
2023-04-07T02:16:15.789Z,94314.56
2023-04-07T02:17:16.389Z,94376.75
2023-04-07T02:18:15.771Z,94369.97
2023-04-07T02:19:12.856Z,94376.63
2023-04-07T02:20:12.730Z,94368.72
2023-04-07T02:21:11.708Z,94358.41
2023-04-07T02:22:09.401Z,94385.22
2023-04-07T02:23:10.863Z,94384.41
2023-04-07T02:24:08.122Z,94303.97
2023-04-07T02:25:25.519Z,94354.81
2023-04-07T02:26:22.342Z,94360.97
2023-04-07T02:27:20.645Z,94357.91
2023-04-07T02:28:17.441Z,94383.25
2023-04-07T02:29:14.439Z,94351.06
2023-04-07T02:30:11.581Z,94372.41
2023-04-07T02:31:08.536Z,94358.13
2023-04-07T02:32:06.923Z,94329.59
2023-04-07T02:33:04.038Z,94380.00
2023-04-07T02:34:00.848Z,94368.19
2023-04-07T02:34:57.587Z,94388.44
2023-04-07T02:35:54.321Z,94332.34
2023-04-07T02:36:51.675Z,94374.72
2023-04-07T02:37:49.182Z,94312.25
2023-04-07T02:38:46.173Z,94385.22
2023-04-07T02:39:42.937Z,94373.41
2023-04-07T02:40:39.856Z,94328.56
2023-04-07T02:41:37.052Z,94333.78
2023-04-07T02:42:33.871Z,94379.44
2023-04-07T02:43:30.596Z,94383.66
2023-04-07T02:44:27.541Z,94389.34
2023-04-07T02:45:24.500Z,94382.13
2023-04-07T02:46:21.362Z,94388.22
2023-04-07T02:47:18.196Z,94365.63
2023-04-07T02:48:14.994Z,94284.56
2023-04-07T02:49:11.805Z,94327.59
2023-04-07T02:50:08.922Z,94356.34
2023-04-07T02:51:05.799Z,94385.22
2023-04-07T02:52:03.248Z,94389.06
2023-04-07T02:53:00.155Z,94359.34
2023-04-07T02:53:57.213Z,94385.53
2023-04-07T02:54:54.594Z,94369.56
2023-04-07T02:55:51.476Z,94375.59
2023-04-07T02:56:48.184Z,94378.03
2023-04-07T02:57:44.919Z,94384.03
2023-04-07T02:58:41.706Z,94355.97
2023-04-07T02:59:38.420Z,94383.84
2023-04-07T03:00:35.522Z,94385.63
2023-04-07T03:01:33.279Z,94371.63
2023-04-07T03:02:30.368Z,94387.34
2023-04-07T03:03:27.364Z,94386.53
2023-04-07T03:04:24.426Z,94301.88
2023-04-07T03:05:21.268Z,94383.75
2023-04-07T03:06:18.035Z,94393.91
2023-04-07T03:07:15.798Z,94394.19
2023-04-07T03:08:13.171Z,94331.47
2023-04-07T03:09:09.985Z,94377.66
2023-04-07T03:10:07.170Z,94389.72
2023-04-07T03:11:03.961Z,94390.38
2023-04-07T03:12:00.735Z,94390.38
2023-04-07T03:12:57.884Z,94384.91
2023-04-07T03:13:54.785Z,94370.38
2023-04-07T03:14:51.621Z,94236.97
2023-04-07T03:15:48.330Z,94374.84
2023-04-07T03:16:45.409Z,94390.75
2023-04-07T03:17:42.358Z,94352.91
2023-04-07T03:18:39.170Z,94380.41
2023-04-07T03:19:36.198Z,94331.34
2023-04-07T03:20:32.976Z,94383.63
2023-04-07T03:21:31.918Z,94383.81
2023-04-07T03:22:28.802Z,94315.19
2023-04-07T03:23:25.829Z,94357.00
2023-04-07T03:24:22.820Z,94383.38
2023-04-07T03:25:19.689Z,94364.47
2023-04-07T03:26:16.642Z,94382.19
2023-04-07T03:27:13.434Z,94382.03
2023-04-07T03:28:10.504Z,94385.75
2023-04-07T03:29:07.294Z,94361.38
2023-04-07T03:30:04.709Z,94342.97
2023-04-07T03:31:01.724Z,94372.81
2023-04-07T03:31:58.459Z,94345.63
2023-04-07T03:32:55.396Z,94377.81
2023-04-07T03:33:52.389Z,94392.41
2023-04-07T03:34:49.314Z,94384.38
2023-04-07T03:35:46.099Z,94386.41
2023-04-07T03:36:42.933Z,94383.56
2023-04-07T03:37:39.722Z,94387.78
2023-04-07T03:38:36.670Z,94392.41
2023-04-07T03:39:33.400Z,94392.38
2023-04-07T03:40:30.329Z,94386.03
2023-04-07T03:41:27.054Z,94363.34
2023-04-07T03:42:23.829Z,94386.81
2023-04-07T03:43:20.641Z,94338.75
2023-04-07T03:44:17.655Z,94378.34
2023-04-07T03:45:14.449Z,94390.31
2023-04-07T03:46:11.540Z,94394.00
2023-04-07T03:47:08.335Z,94396.84
2023-04-07T03:48:05.545Z,94390.84
2023-04-07T03:49:02.378Z,94345.81
2023-04-07T03:49:59.150Z,94383.66
2023-04-07T03:50:55.914Z,94380.00
2023-04-07T03:51:52.695Z,94398.09
2023-04-07T03:52:49.454Z,94394.50
2023-04-07T03:53:46.430Z,94395.34
2023-04-07T03:54:43.312Z,94327.31
2023-04-07T03:55:40.171Z,94388.06
2023-04-07T03:56:37.457Z,94370.69
2023-04-07T03:57:34.251Z,94391.63
2023-04-07T03:58:31.592Z,94330.66
2023-04-07T03:59:28.728Z,94392.81
2023-04-07T04:00:25.960Z,94352.97
2023-04-07T04:01:22.770Z,94399.25
2023-04-07T04:02:19.789Z,94341.28
2023-04-07T04:03:16.781Z,94354.31
2023-04-07T04:04:13.751Z,94407.84
2023-04-07T04:05:10.720Z,94405.25
2023-04-07T04:06:07.529Z,94356.28
2023-04-07T04:07:04.308Z,94317.28
2023-04-07T04:08:01.186Z,94394.22
2023-04-07T04:08:58.018Z,94373.94
2023-04-07T04:09:54.790Z,94400.06
2023-04-07T04:10:52.200Z,94259.41
2023-04-07T04:11:49.072Z,94376.38
2023-04-07T04:12:48.049Z,94385.97
2023-04-07T04:13:44.787Z,94408.56
2023-04-07T04:14:50.780Z,94333.56
2023-04-07T04:15:47.670Z,94410.00
2023-04-07T04:16:44.480Z,94406.44
2023-04-07T04:17:41.979Z,94403.06
2023-04-07T04:18:38.855Z,94360.19
2023-04-07T04:19:35.820Z,94406.56
2023-04-07T04:20:32.573Z,94415.28
2023-04-07T04:21:29.560Z,94409.88
2023-04-07T04:22:26.546Z,94402.78
2023-04-07T04:23:23.272Z,94412.63
2023-04-07T04:24:19.996Z,94413.34
2023-04-07T04:25:17.909Z,94374.47
2023-04-07T04:26:14.653Z,94398.53
2023-04-07T04:27:11.489Z,94410.00
2023-04-07T04:28:08.248Z,94418.06
2023-04-07T04:29:05.028Z,94385.63
2023-04-07T04:30:01.823Z,94418.84
2023-04-07T04:30:58.663Z,94423.13
2023-04-07T04:31:55.416Z,94418.88
2023-04-07T04:32:52.283Z,94426.38
2023-04-07T04:33:50.618Z,94387.56
2023-04-07T04:34:47.417Z,94410.50
2023-04-07T04:35:45.433Z,94378.94
2023-04-07T04:36:42.305Z,94372.81
2023-04-07T04:37:39.199Z,94428.34
2023-04-07T04:38:36.009Z,94397.16
2023-04-07T04:39:32.755Z,94371.50
2023-04-07T04:40:29.515Z,94425.81
2023-04-07T04:41:26.276Z,94411.59
2023-04-07T04:42:23.037Z,94427.78
2023-04-07T04:43:19.874Z,94420.19
2023-04-07T04:44:16.706Z,94427.09
2023-04-07T04:45:13.547Z,94426.75
2023-04-07T04:46:10.606Z,94424.59
2023-04-07T04:47:07.446Z,94398.38
2023-04-07T04:48:04.471Z,94434.19
2023-04-07T04:49:01.334Z,94442.09
2023-04-07T04:49:58.235Z,94380.44
2023-04-07T04:50:55.035Z,94323.06
2023-04-07T04:51:52.137Z,94397.47
2023-04-07T04:52:48.940Z,94398.34
2023-04-07T04:53:45.983Z,94435.97
2023-04-07T04:54:42.780Z,94426.50
2023-04-07T04:55:40.982Z,94385.59
2023-04-07T04:56:37.748Z,94426.13
2023-04-07T04:57:36.169Z,94438.06
2023-04-07T04:58:32.961Z,94421.59
2023-04-07T04:59:29.770Z,94450.22
2023-04-07T05:00:26.523Z,94439.09
2023-04-07T05:01:23.333Z,94402.22
2023-04-07T05:02:20.740Z,94398.88
2023-04-07T05:03:17.903Z,94448.28
2023-04-07T05:04:15.109Z,94398.03
2023-04-07T05:05:12.121Z,94431.16
2023-04-07T05:06:08.950Z,94439.81
2023-04-07T05:07:05.716Z,94358.16
2023-04-07T05:08:02.532Z,94389.16
2023-04-07T05:08:59.395Z,94411.44
2023-04-07T05:09:56.607Z,94448.31
2023-04-07T05:10:53.425Z,94401.59
2023-04-07T05:11:50.281Z,94437.34
2023-04-07T05:12:47.108Z,94340.16
2023-04-07T05:13:43.901Z,94425.19
2023-04-07T05:14:40.641Z,94445.94
2023-04-07T05:15:37.398Z,94428.44
2023-04-07T05:16:34.820Z,94402.81
2023-04-07T05:17:31.663Z,94391.75
2023-04-07T05:18:28.431Z,94454.75
2023-04-07T05:19:25.525Z,94437.56
2023-04-07T05:20:22.357Z,94458.88
2023-04-07T05:21:21.964Z,94432.38
2023-04-07T05:22:18.793Z,94444.88
2023-04-07T05:23:15.943Z,94459.69
2023-04-07T05:24:12.722Z,94427.84
2023-04-07T05:25:09.697Z,94433.53
2023-04-07T05:26:06.516Z,94460.38
2023-04-07T05:27:03.287Z,94457.78
2023-04-07T05:28:00.043Z,94463.81
2023-04-07T05:28:56.775Z,94462.38
2023-04-07T05:29:53.538Z,94362.16
2023-04-07T05:30:50.550Z,94450.13
2023-04-07T05:31:47.437Z,94400.13
2023-04-07T05:32:44.358Z,94455.88
2023-04-07T05:33:41.485Z,94423.44
2023-04-07T05:34:38.286Z,94416.94
2023-04-07T05:35:35.360Z,94364.81
2023-04-07T05:36:32.155Z,94415.88
2023-04-07T05:37:28.960Z,94453.69
2023-04-07T05:38:26.141Z,94455.97
2023-04-07T05:39:23.020Z,94422.16
2023-04-07T05:40:22.915Z,94448.31
2023-04-07T05:41:19.676Z,94457.50
2023-04-07T05:42:16.469Z,94451.47
2023-04-07T05:43:13.223Z,94459.88
2023-04-07T05:44:09.985Z,94465.09
2023-04-07T05:45:07.539Z,94377.84
2023-04-07T05:46:04.442Z,94421.91
2023-04-07T05:47:01.290Z,94385.94
2023-04-07T05:47:58.098Z,94461.19
2023-04-07T05:48:54.855Z,94459.25
2023-04-07T05:49:51.766Z,94462.50
2023-04-07T05:50:48.561Z,94442.34
2023-04-07T05:51:46.825Z,94444.88
2023-04-07T05:52:45.304Z,94460.09
2023-04-07T05:53:42.037Z,94454.13
2023-04-07T05:54:40.838Z,94416.06
2023-04-07T05:55:37.717Z,94428.66
2023-04-07T05:56:34.444Z,94429.81
2023-04-07T05:57:31.165Z,94406.28
2023-04-07T05:58:28.152Z,94462.53
2023-04-07T05:59:24.905Z,94427.16
2023-04-07T06:00:22.044Z,94459.59
2023-04-07T06:01:18.746Z,94454.75
2023-04-07T06:02:15.575Z,94454.94
2023-04-07T06:03:12.442Z,94417.94
2023-04-07T06:04:09.222Z,94458.94
2023-04-07T06:05:07.310Z,94445.91
2023-04-07T06:06:04.353Z,94450.94
2023-04-07T06:07:02.015Z,94463.19
2023-04-07T06:07:58.786Z,94455.34
2023-04-07T06:08:55.722Z,94441.66
2023-04-07T06:09:52.485Z,94430.00
2023-04-07T06:10:49.461Z,94457.34
2023-04-07T06:11:47.163Z,94425.38
2023-04-07T06:12:43.999Z,94415.53
2023-04-07T06:13:40.973Z,94462.59
2023-04-07T06:14:38.152Z,94452.09
2023-04-07T06:15:35.087Z,94453.34
2023-04-07T06:16:31.840Z,94464.78
2023-04-07T06:17:28.617Z,94432.25
2023-04-07T06:18:25.563Z,94400.06
2023-04-07T06:19:22.318Z,94436.84
2023-04-07T06:20:21.638Z,94408.25
2023-04-07T06:21:18.325Z,94450.69
2023-04-07T06:22:15.565Z,94443.03
2023-04-07T06:23:12.614Z,94410.69
2023-04-07T06:24:09.420Z,94465.19
2023-04-07T06:25:07.111Z,94449.28
2023-04-07T06:26:04.032Z,94463.78
2023-04-07T06:27:01.998Z,94460.28
2023-04-07T06:27:59.525Z,94465.31
2023-04-07T06:28:56.617Z,94445.22
2023-04-07T06:29:53.456Z,94448.66
2023-04-07T06:30:50.527Z,94466.72
2023-04-07T06:31:47.347Z,94445.09
2023-04-07T06:32:44.190Z,94459.06
2023-04-07T06:33:41.208Z,94450.91
2023-04-07T06:34:38.018Z,94455.63
2023-04-07T06:35:34.821Z,94460.25
2023-04-07T06:36:33.202Z,94462.25
2023-04-07T06:37:30.380Z,94428.25
2023-04-07T06:38:27.179Z,94422.22
2023-04-07T06:39:25.392Z,94445.31
2023-04-07T06:40:22.175Z,94421.91
2023-04-07T06:41:18.966Z,94463.56
2023-04-07T06:42:15.853Z,94346.22
2023-04-07T06:43:12.815Z,94430.53
2023-04-07T06:44:11.239Z,94440.44
2023-04-07T06:45:08.794Z,94441.47
2023-04-07T06:46:05.572Z,94461.03
2023-04-07T06:47:02.343Z,94428.59
2023-04-07T06:47:59.151Z,94456.81
2023-04-07T06:48:56.516Z,94467.28
2023-04-07T06:49:53.246Z,94456.28
2023-04-07T06:50:50.531Z,94446.38
2023-04-07T06:51:47.392Z,94454.97
2023-04-07T06:52:44.178Z,94455.56
2023-04-07T06:53:41.930Z,94418.13
2023-04-07T06:54:38.789Z,94463.91
2023-04-07T06:55:35.856Z,94460.06
2023-04-07T06:56:33.591Z,94453.47
2023-04-07T06:57:30.421Z,94462.50
2023-04-07T06:58:27.253Z,94437.81
2023-04-07T06:59:24.110Z,94455.13
2023-04-07T07:00:23.130Z,94406.00
2023-04-07T07:01:19.926Z,94453.81
2023-04-07T07:02:17.141Z,94465.06
2023-04-07T07:03:14.120Z,94463.38
2023-04-07T07:04:11.179Z,94480.09
2023-04-07T07:05:08.414Z,94389.91
2023-04-07T07:06:05.581Z,94480.00
2023-04-07T07:07:03.477Z,94416.31
2023-04-07T07:08:00.318Z,94414.00
2023-04-07T07:08:57.805Z,94475.84
2023-04-07T07:09:54.695Z,94442.09
2023-04-07T07:10:51.921Z,94476.13
2023-04-07T07:11:48.690Z,94481.00
2023-04-07T07:12:45.439Z,94450.44
2023-04-07T07:13:42.125Z,94472.91
2023-04-07T07:14:38.911Z,94477.28
2023-04-07T07:15:35.691Z,94470.00
2023-04-07T07:16:32.501Z,94467.34
2023-04-07T07:17:29.365Z,94494.56
2023-04-07T07:18:26.059Z,94457.22
2023-04-07T07:19:22.785Z,94480.56
2023-04-07T07:20:19.674Z,94467.44
2023-04-07T07:21:18.383Z,94452.50
2023-04-07T07:22:15.118Z,94480.34
2023-04-07T07:23:12.080Z,94420.56
2023-04-07T07:24:08.964Z,94481.50
2023-04-07T07:25:05.885Z,94483.78
2023-04-07T07:26:03.655Z,94458.59
2023-04-07T07:27:02.501Z,94484.88
2023-04-07T07:27:59.266Z,94494.94
2023-04-07T07:28:56.148Z,94488.50
2023-04-07T07:29:52.945Z,94472.81
2023-04-07T07:30:50.063Z,94429.53
2023-04-07T07:31:46.837Z,94463.41
2023-04-07T07:32:43.580Z,94490.25
2023-04-07T07:33:41.487Z,94492.28
2023-04-07T07:34:38.330Z,94488.56
2023-04-07T07:35:35.361Z,94479.03
2023-04-07T07:36:32.325Z,94402.91
2023-04-07T07:37:29.120Z,94491.94
2023-04-07T07:38:27.597Z,94426.72
2023-04-07T07:39:24.445Z,94330.47
2023-04-07T07:40:21.508Z,94382.84
2023-04-07T07:41:18.273Z,94474.81
2023-04-07T07:42:15.375Z,94493.00
2023-04-07T07:43:12.606Z,94431.41
2023-04-07T07:44:09.337Z,94463.03
2023-04-07T07:45:06.418Z,94503.91
2023-04-07T07:46:03.915Z,94500.97
2023-04-07T07:47:00.758Z,94452.03
2023-04-07T07:47:57.794Z,94495.06
2023-04-07T07:48:54.641Z,94503.66
2023-04-07T07:49:51.372Z,94478.34
2023-04-07T07:50:49.134Z,94492.22
2023-04-07T07:51:46.711Z,94480.38
2023-04-07T07:52:43.455Z,94479.03
2023-04-07T07:53:40.306Z,94498.19
2023-04-07T07:54:37.253Z,94489.03
2023-04-07T07:55:34.082Z,94450.50
2023-04-07T07:56:31.170Z,94497.59
2023-04-07T07:57:28.039Z,94470.31
2023-04-07T07:58:25.124Z,94468.41
2023-04-07T07:59:21.976Z,94460.34
2023-04-07T08:00:18.949Z,94509.41
2023-04-07T08:01:15.944Z,94494.25
2023-04-07T08:02:12.746Z,94494.06
2023-04-07T08:03:09.646Z,94489.03
2023-04-07T08:04:06.659Z,94498.47
2023-04-07T08:05:03.855Z,94498.50
2023-04-07T08:06:01.187Z,94414.06
2023-04-07T08:06:58.297Z,94471.13
2023-04-07T08:07:55.548Z,94510.63
2023-04-07T08:08:52.345Z,94503.97
2023-04-07T08:09:49.727Z,94478.47
2023-04-07T08:10:46.561Z,94448.25
2023-04-07T08:11:43.546Z,94500.50
2023-04-07T08:12:40.695Z,94523.22
2023-04-07T08:13:37.469Z,94509.59
2023-04-07T08:14:34.247Z,94495.59
2023-04-07T08:15:31.187Z,94493.22
2023-04-07T08:16:28.174Z,94508.84
2023-04-07T08:17:25.071Z,94502.63
2023-04-07T08:18:22.172Z,94498.88
2023-04-07T08:19:19.155Z,94493.88
2023-04-07T08:20:16.368Z,94507.94
2023-04-07T08:21:13.148Z,94503.78
2023-04-07T08:22:09.954Z,94509.00
2023-04-07T08:23:06.687Z,94491.13
2023-04-07T08:24:03.670Z,94458.81
2023-04-07T08:25:00.500Z,94509.63
2023-04-07T08:25:57.226Z,94506.91
2023-04-07T08:26:53.962Z,94511.63
2023-04-07T08:27:50.944Z,94500.25
2023-04-07T08:28:49.080Z,94495.59
2023-04-07T08:29:45.893Z,94504.63
2023-04-07T08:30:42.625Z,94505.50
2023-04-07T08:31:39.447Z,94503.75
2023-04-07T08:32:36.356Z,94509.91
2023-04-07T08:33:33.182Z,94506.69
2023-04-07T08:34:29.981Z,94412.03
2023-04-07T08:35:26.770Z,94512.75
2023-04-07T08:36:24.612Z,94466.59
2023-04-07T08:37:21.514Z,94506.50
2023-04-07T08:38:18.326Z,94503.41
2023-04-07T08:39:15.057Z,94500.31
2023-04-07T08:40:13.105Z,94501.97
2023-04-07T08:41:18.384Z,94466.47
2023-04-07T08:42:17.803Z,94491.59
2023-04-07T08:43:17.988Z,94479.00
2023-04-07T08:44:15.990Z,94500.63
2023-04-07T08:45:13.951Z,94448.50
2023-04-07T08:46:11.481Z,94463.69
2023-04-07T08:47:11.690Z,94503.72
2023-04-07T08:48:17.861Z,94515.47
2023-04-07T08:49:18.536Z,94516.63
2023-04-07T08:50:18.282Z,94471.72
2023-04-07T08:51:19.038Z,94515.88
2023-04-07T08:52:18.286Z,94517.38
2023-04-07T08:53:23.450Z,94516.31
2023-04-07T08:54:24.596Z,94508.75
2023-04-07T08:55:21.347Z,94500.91
2023-04-07T08:56:19.033Z,94512.13
2023-04-07T08:57:18.074Z,94461.44
2023-04-07T08:58:16.704Z,94483.09
2023-04-07T08:59:16.046Z,94475.13
2023-04-07T09:00:13.839Z,94512.09
2023-04-07T09:01:11.729Z,94481.81
2023-04-07T09:02:09.334Z,94507.19
2023-04-07T09:03:08.826Z,94510.38
2023-04-07T09:04:09.262Z,94510.72
2023-04-07T09:05:08.926Z,94502.88
2023-04-07T09:06:06.237Z,94515.41
2023-04-07T09:07:03.322Z,94498.44
2023-04-07T09:08:00.144Z,94488.63
2023-04-07T09:08:56.942Z,94506.81
2023-04-07T09:09:53.745Z,94503.84
2023-04-07T09:10:50.893Z,94504.38
2023-04-07T09:11:48.700Z,94480.50
2023-04-07T09:12:45.486Z,94498.03
2023-04-07T09:13:42.355Z,94505.09
2023-04-07T09:14:39.073Z,94477.66
2023-04-07T09:15:38.475Z,94477.75
2023-04-07T09:16:36.057Z,94454.66
2023-04-07T09:17:32.973Z,94510.47
2023-04-07T09:18:30.223Z,94441.97
2023-04-07T09:19:27.832Z,94498.59
2023-04-07T09:20:25.446Z,94507.72
2023-04-07T09:21:22.327Z,94511.41
2023-04-07T09:22:36.280Z,94498.28
2023-04-07T09:23:38.466Z,94503.50
2023-04-07T09:24:35.295Z,94534.88
2023-04-07T09:25:33.758Z,94505.63
2023-04-07T09:26:31.733Z,94497.56
2023-04-07T09:27:28.701Z,94493.00
2023-04-07T09:28:25.971Z,94492.63
2023-04-07T09:29:22.714Z,94504.22
2023-04-07T09:30:19.656Z,94507.53
2023-04-07T09:31:16.898Z,94517.06
2023-04-07T09:32:36.280Z,94511.31
2023-04-07T09:33:35.603Z,94517.72
2023-04-07T09:34:37.278Z,94516.69
2023-04-07T09:35:52.306Z,94482.81
2023-04-07T09:36:49.129Z,94525.47
2023-04-07T09:38:02.638Z,94508.44
2023-04-07T09:39:08.511Z,94523.50
2023-04-07T09:40:06.123Z,94502.00
2023-04-07T09:41:17.170Z,94520.09
2023-04-07T09:42:13.951Z,94429.00
2023-04-07T09:43:18.840Z,94519.34
2023-04-07T09:44:15.895Z,94514.94
2023-04-07T09:45:16.372Z,94480.78
2023-04-07T09:46:20.684Z,94512.16
2023-04-07T09:47:18.130Z,94519.25
2023-04-07T09:48:22.090Z,94522.63
2023-04-07T09:49:22.720Z,94489.56
2023-04-07T09:50:46.015Z,94527.69
2023-04-07T09:52:09.099Z,94526.97
2023-04-07T09:53:05.937Z,94489.50
2023-04-07T09:54:02.991Z,94524.25
2023-04-07T09:54:59.800Z,94531.66
2023-04-07T09:55:57.714Z,94523.00
2023-04-07T09:56:56.272Z,94526.69
2023-04-07T09:57:55.505Z,94489.16
2023-04-07T09:58:52.281Z,94521.03
2023-04-07T09:59:50.467Z,94526.50
2023-04-07T10:00:48.114Z,94528.44
2023-04-07T10:01:45.147Z,94516.69
2023-04-07T10:02:43.832Z,94525.31
2023-04-07T10:03:40.811Z,94521.34
2023-04-07T10:04:39.156Z,94494.22
2023-04-07T10:05:39.062Z,94518.41
2023-04-07T10:06:36.772Z,94487.06
2023-04-07T10:07:34.965Z,94518.47
2023-04-07T10:08:34.405Z,94444.72
2023-04-07T10:09:31.857Z,94492.41
2023-04-07T10:10:31.813Z,94507.72
2023-04-07T10:11:28.601Z,94517.16
2023-04-07T10:12:27.160Z,94486.91
2023-04-07T10:13:25.958Z,94517.94
2023-04-07T10:14:27.754Z,94472.59
2023-04-07T10:15:25.063Z,94489.81
2023-04-07T10:16:23.394Z,94476.84
2023-04-07T10:17:24.745Z,94504.03
2023-04-07T10:18:26.023Z,94481.81
2023-04-07T10:19:23.766Z,94522.56
2023-04-07T10:20:22.444Z,94532.94
2023-04-07T10:21:19.407Z,94506.06
2023-04-07T10:22:18.889Z,94519.84
2023-04-07T10:23:49.305Z,94531.28
2023-04-07T10:25:05.365Z,94456.72
2023-04-07T10:26:05.656Z,94531.09
2023-04-07T10:27:08.282Z,94504.66
2023-04-07T10:28:09.710Z,94519.19
2023-04-07T10:29:15.074Z,94510.19
2023-04-07T10:30:19.367Z,94492.13
2023-04-07T10:31:17.530Z,94506.53
2023-04-07T10:32:14.510Z,94484.78
2023-04-07T10:33:11.272Z,94490.31
2023-04-07T10:34:08.087Z,94521.97
2023-04-07T10:35:05.294Z,94530.25
2023-04-07T10:36:07.304Z,94479.81
2023-04-07T10:37:17.708Z,94520.72
2023-04-07T10:38:16.471Z,94486.72
2023-04-07T10:39:25.637Z,94442.50
2023-04-07T10:40:27.926Z,94531.63
2023-04-07T10:41:38.034Z,94525.44
2023-04-07T10:42:37.719Z,94474.94
2023-04-07T10:43:40.006Z,94500.97
2023-04-07T10:44:39.304Z,94538.94
2023-04-07T10:45:57.989Z,94536.88
2023-04-07T10:47:00.853Z,94544.97
2023-04-07T10:48:03.789Z,94547.66
2023-04-07T10:49:13.281Z,94541.25
2023-04-07T10:50:20.517Z,94545.50
2023-04-07T10:51:18.826Z,94534.38
2023-04-07T10:52:23.375Z,94527.19
2023-04-07T10:53:20.126Z,94506.31
2023-04-07T10:54:22.459Z,94488.31
2023-04-07T10:55:45.319Z,94538.28
2023-04-07T10:57:18.091Z,94538.47
2023-04-07T10:58:26.057Z,94536.25
2023-04-07T10:59:27.895Z,94538.16
2023-04-07T11:00:24.931Z,94519.25
2023-04-07T11:01:21.948Z,94391.25
2023-04-07T11:02:24.767Z,94536.16
2023-04-07T11:03:22.086Z,94529.38
2023-04-07T11:04:19.128Z,94542.50
2023-04-07T11:05:23.162Z,94473.06
2023-04-07T11:06:23.225Z,94539.53
2023-04-07T11:07:55.370Z,94538.78
2023-04-07T11:08:52.201Z,94533.44
2023-04-07T11:09:49.082Z,94541.78
2023-04-07T11:10:48.341Z,94541.09
2023-04-07T11:11:47.694Z,94540.69
2023-04-07T11:12:44.759Z,94544.53
2023-04-07T11:13:51.754Z,94530.16
2023-04-07T11:14:48.572Z,94510.84
2023-04-07T11:15:49.898Z,94541.03
2023-04-07T11:16:46.838Z,94533.06
2023-04-07T11:17:43.702Z,94513.84
2023-04-07T11:18:41.423Z,94527.72
2023-04-07T11:19:54.238Z,94523.94
2023-04-07T11:20:58.383Z,94536.97
2023-04-07T11:22:28.576Z,94542.34
2023-04-07T11:23:27.546Z,94539.31
2023-04-07T11:24:34.351Z,94509.72
2023-04-07T11:25:33.087Z,94525.19
2023-04-07T11:26:30.428Z,94528.16
2023-04-07T11:27:28.536Z,94492.47
2023-04-07T11:28:25.445Z,94505.19
2023-04-07T11:29:31.921Z,94537.09
2023-04-07T11:30:29.300Z,94542.63
2023-04-07T11:31:31.278Z,94528.97